Clinton, Washington
Current Conditions -  °F | °C
As of 11:17 PM on Friday 26 Dec 2014 (Local Time) from KPAE Reporting Station
Light Rain Light Rain  
Wind Chill: 35°   Ceiling: 900
Heat Index: 40°   Visibility: 9mi
Dew Point: 36°   Wind: 7mph
Humidity: 86%   Direction: 150°SSE
Pressure: 30.33"   Gusts: NA
Location:  47.98°N, 122.36°W
Report Text: KPAE 270717Z AUTO 15006KT 9SM -RA OVC009 04/02 A3033 RMK AO2 RAB12 P0000 T00440022
Loading
Personal Weather Stations






























Interactive Weather Map New forecast layout! Learn more

10-Day Weather Forecast

Advertisements
Track Severe Weather on mobile